createdAt,value
2018-08-22T00:00:58.629Z,984.4
2018-08-22T00:01:59.802Z,984.5
2018-08-22T00:03:01.160Z,984.5
2018-08-22T00:04:02.399Z,984.4
2018-08-22T00:05:03.600Z,984.4
2018-08-22T00:06:04.780Z,984.4
2018-08-22T00:07:05.994Z,984.4
2018-08-22T00:08:10.057Z,984.4
2018-08-22T00:09:11.263Z,984.4
2018-08-22T00:10:13.746Z,984.4
2018-08-22T00:11:17.237Z,984.4
2018-08-22T00:12:18.426Z,984.4
2018-08-22T00:13:19.568Z,984.3
2018-08-22T00:14:20.797Z,984.4
2018-08-22T00:15:22.050Z,984.4
2018-08-22T00:16:23.234Z,984.3
2018-08-22T00:17:24.439Z,984.4
2018-08-22T00:18:25.644Z,984.3
2018-08-22T00:19:26.855Z,984.3
2018-08-22T00:20:28.023Z,984.4
2018-08-22T00:21:29.227Z,984.3
2018-08-22T00:22:30.424Z,984.3
2018-08-22T00:23:31.582Z,984.3
2018-08-22T00:24:33.295Z,984.3
2018-08-22T00:25:34.528Z,984.3
2018-08-22T00:26:35.723Z,984.3
2018-08-22T00:27:37.830Z,984.2
2018-08-22T00:28:39.113Z,984.3
2018-08-22T00:29:40.362Z,984.3
2018-08-22T00:30:42.927Z,984.3
2018-08-22T00:31:44.102Z,984.3
2018-08-22T00:32:45.273Z,984.3
2018-08-22T00:33:46.498Z,984.3
2018-08-22T00:34:47.691Z,984.3
2018-08-22T00:35:48.883Z,984.3
2018-08-22T00:36:52.293Z,984.3
2018-08-22T00:37:53.475Z,984.2
2018-08-22T00:38:57.314Z,984.3
2018-08-22T00:39:58.556Z,984.3
2018-08-22T00:40:59.756Z,984.2
2018-08-22T00:42:01.184Z,984
2018-08-22T00:43:02.417Z,984.2
2018-08-22T00:44:03.619Z,984.2
2018-08-22T00:45:04.859Z,984.2
2018-08-22T00:46:06.094Z,984.3
2018-08-22T00:47:07.362Z,984.3
2018-08-22T00:48:08.522Z,984.3
2018-08-22T00:49:09.727Z,984.1
2018-08-22T00:50:10.938Z,984.3
2018-08-22T00:51:12.127Z,984.3
2018-08-22T00:52:13.382Z,984.3
2018-08-22T00:53:14.591Z,984.1
2018-08-22T00:54:15.812Z,984.3
2018-08-22T00:55:17.245Z,984.2
2018-08-22T00:56:18.435Z,984.2
2018-08-22T00:57:19.603Z,984.3
2018-08-22T00:58:20.786Z,984.2
2018-08-22T00:59:21.959Z,984.2
2018-08-22T01:00:23.155Z,984.2
2018-08-22T01:01:24.354Z,984.2
2018-08-22T01:02:25.565Z,984.2
2018-08-22T01:03:26.740Z,984.2
2018-08-22T01:04:29.837Z,984.2
2018-08-22T01:05:31.098Z,984.2
2018-08-22T01:06:32.333Z,984.2
2018-08-22T01:07:33.539Z,984.2
2018-08-22T01:08:36.966Z,984.1
2018-08-22T01:09:38.209Z,984.1
2018-08-22T01:10:39.477Z,984.1
2018-08-22T01:11:40.675Z,984.1
2018-08-22T01:12:43.275Z,984.1
2018-08-22T01:13:44.459Z,984.2
2018-08-22T01:14:45.687Z,984.1
2018-08-22T01:15:46.925Z,984.1
2018-08-22T01:16:50.321Z,984.1
2018-08-22T01:17:51.491Z,984.1
2018-08-22T01:18:52.656Z,984.2
2018-08-22T01:19:53.837Z,984.2
2018-08-22T01:20:55.056Z,984.2
2018-08-22T01:21:56.245Z,984.2
2018-08-22T01:22:57.461Z,984.2
2018-08-22T01:24:01.100Z,984.2
2018-08-22T01:25:02.357Z,984.2
2018-08-22T01:26:03.810Z,984.2
2018-08-22T01:27:05.008Z,984.1
2018-08-22T01:28:07.656Z,984.1
2018-08-22T01:29:12.919Z,984.1
2018-08-22T01:30:16.539Z,984.1
2018-08-22T01:31:17.784Z,984.1
2018-08-22T01:32:19.059Z,984.1
2018-08-22T01:33:20.275Z,984.1
2018-08-22T01:34:21.472Z,984
2018-08-22T01:35:22.677Z,984.1
2018-08-22T01:36:23.905Z,984
2018-08-22T01:37:25.124Z,983.8
2018-08-22T01:38:28.534Z,984.1
2018-08-22T01:39:29.755Z,984
2018-08-22T01:40:37.496Z,984
2018-08-22T01:41:40.642Z,984
2018-08-22T01:42:41.839Z,984.1
2018-08-22T01:43:45.683Z,984.1
2018-08-22T01:44:46.881Z,984.1
2018-08-22T01:45:48.081Z,984
2018-08-22T01:46:49.299Z,984
2018-08-22T01:47:50.498Z,984.1
2018-08-22T01:48:51.722Z,984.1
2018-08-22T01:49:52.890Z,984.1
2018-08-22T01:50:54.122Z,984
2018-08-22T01:51:55.406Z,984
2018-08-22T01:52:56.631Z,984.1
2018-08-22T01:53:57.813Z,984.1
2018-08-22T01:54:59.242Z,984
2018-08-22T01:56:00.459Z,984
2018-08-22T01:57:02.095Z,984
2018-08-22T01:58:03.738Z,984
2018-08-22T01:59:04.912Z,984
2018-08-22T02:00:06.115Z,984
2018-08-22T02:01:07.334Z,984
2018-08-22T02:02:08.591Z,984
2018-08-22T02:03:09.813Z,984
2018-08-22T02:04:10.976Z,984
2018-08-22T02:05:12.151Z,984
2018-08-22T02:06:13.426Z,984
2018-08-22T02:07:14.663Z,984
2018-08-22T02:08:15.865Z,984
2018-08-22T02:09:17.068Z,984
2018-08-22T02:10:18.301Z,984
2018-08-22T02:11:19.532Z,983.9
2018-08-22T02:12:22.414Z,983.9
2018-08-22T02:13:23.614Z,983.9
2018-08-22T02:14:24.806Z,983.9
2018-08-22T02:15:25.975Z,983.8
2018-08-22T02:16:27.192Z,983.9
2018-08-22T02:17:28.452Z,983.9
2018-08-22T02:18:29.658Z,983.9
2018-08-22T02:19:30.846Z,983.9
2018-08-22T02:20:32.104Z,983.9
2018-08-22T02:21:33.339Z,983.9
2018-08-22T02:22:34.646Z,983.9
2018-08-22T02:23:35.817Z,983.9
2018-08-22T02:24:36.986Z,983.9
2018-08-22T02:25:38.195Z,983.9
2018-08-22T02:26:39.407Z,984
2018-08-22T02:27:41.137Z,983.9
2018-08-22T02:28:42.336Z,983.9
2018-08-22T02:29:43.576Z,984
2018-08-22T02:30:44.767Z,983.9
2018-08-22T02:31:45.960Z,983.9
2018-08-22T02:32:47.196Z,983.9
2018-08-22T02:33:48.435Z,983.9
2018-08-22T02:34:49.665Z,983.9
2018-08-22T02:35:50.888Z,983.9
2018-08-22T02:36:52.293Z,983.9
2018-08-22T02:37:53.561Z,983.9
2018-08-22T02:38:54.728Z,984
2018-08-22T02:39:55.939Z,983.9
2018-08-22T02:40:57.137Z,984
2018-08-22T02:41:58.981Z,984
2018-08-22T02:43:00.319Z,984
2018-08-22T02:44:01.568Z,983.9
2018-08-22T02:45:02.824Z,983.9
2018-08-22T02:46:04.128Z,983.9
2018-08-22T02:47:05.329Z,983.9
2018-08-22T02:48:06.766Z,983.7
2018-08-22T02:49:08.008Z,983.8
2018-08-22T02:50:09.222Z,983.9
2018-08-22T02:51:10.550Z,983.9
2018-08-22T02:52:11.759Z,983.9
2018-08-22T02:53:13.044Z,983.9
2018-08-22T02:54:14.280Z,983.9
2018-08-22T02:55:15.510Z,983.9
2018-08-22T02:56:16.722Z,983.9
2018-08-22T02:57:18.450Z,983.7
2018-08-22T02:58:19.861Z,983.8
2018-08-22T02:59:24.237Z,983.9
2018-08-22T03:00:26.693Z,983.9
2018-08-22T03:01:30.356Z,983.9
2018-08-22T03:02:31.937Z,983.8
2018-08-22T03:03:33.227Z,983.9
2018-08-22T03:04:34.423Z,983.9
2018-08-22T03:05:35.626Z,983.8
2018-08-22T03:06:39.647Z,983.9
2018-08-22T03:07:45.737Z,983.9
2018-08-22T03:08:47.252Z,983.8
2018-08-22T03:09:49.796Z,983.9
2018-08-22T03:10:50.985Z,983.9
2018-08-22T03:11:52.209Z,983.8
2018-08-22T03:12:53.443Z,983.8
2018-08-22T03:13:54.679Z,983.8
2018-08-22T03:14:55.875Z,983.8
2018-08-22T03:15:57.064Z,983.8
2018-08-22T03:16:58.367Z,983.8
2018-08-22T03:17:59.564Z,983.8
2018-08-22T03:19:00.840Z,983.8
2018-08-22T03:20:02.068Z,983.8
2018-08-22T03:21:03.325Z,983.8
2018-08-22T03:22:09.487Z,983.8
2018-08-22T03:23:10.713Z,983.8
2018-08-22T03:24:11.964Z,983.7
2018-08-22T03:25:13.207Z,983.8
2018-08-22T03:26:14.494Z,983.7
2018-08-22T03:27:15.620Z,983.7
2018-08-22T03:28:17.822Z,983.8
2018-08-22T03:29:19.142Z,983.8
2018-08-22T03:30:20.409Z,983.7
2018-08-22T03:31:21.637Z,983.7
2018-08-22T03:32:22.832Z,983.7
2018-08-22T03:33:24.035Z,983.8
2018-08-22T03:34:25.254Z,983.8
2018-08-22T03:35:26.464Z,983.8
2018-08-22T03:36:27.773Z,983.8
2018-08-22T03:37:29.284Z,983.7
2018-08-22T03:38:30.461Z,983.7
2018-08-22T03:39:31.762Z,983.7
2018-08-22T03:40:33.272Z,983.7
2018-08-22T03:41:34.511Z,983.7
2018-08-22T03:42:35.726Z,983.4
2018-08-22T03:43:36.947Z,983.6
2018-08-22T03:44:38.731Z,983.7
2018-08-22T03:45:39.980Z,983.6
2018-08-22T03:46:41.209Z,983.6
2018-08-22T03:47:42.431Z,983.5
2018-08-22T03:48:43.632Z,983.7
2018-08-22T03:49:44.867Z,983.6
2018-08-22T03:50:46.087Z,983.7
2018-08-22T03:51:48.006Z,983.7
2018-08-22T03:52:49.224Z,983.7
2018-08-22T03:53:50.446Z,983.7
2018-08-22T03:54:51.695Z,983.7
2018-08-22T03:55:52.883Z,983.7
2018-08-22T03:56:54.121Z,983.7
2018-08-22T03:57:55.333Z,983.8
2018-08-22T03:58:57.681Z,983.7
2018-08-22T03:59:58.973Z,983.7
2018-08-22T04:01:00.203Z,983.7
2018-08-22T04:02:02.172Z,983.7
2018-08-22T04:03:03.455Z,983.7
2018-08-22T04:04:04.699Z,983.7
2018-08-22T04:05:06.000Z,983.7
2018-08-22T04:06:07.220Z,983.8
2018-08-22T04:07:08.428Z,983.8
2018-08-22T04:08:09.634Z,983.8
2018-08-22T04:09:10.843Z,983.8
2018-08-22T04:10:12.099Z,983.8
2018-08-22T04:11:13.336Z,983.8
2018-08-22T04:12:14.614Z,983.7
2018-08-22T04:13:16.403Z,983.7
2018-08-22T04:14:17.774Z,983.8
2018-08-22T04:15:19.277Z,983.8
2018-08-22T04:16:21.343Z,983.8
2018-08-22T04:17:22.671Z,983.8
2018-08-22T04:18:23.863Z,983.8
2018-08-22T04:19:25.066Z,983.8
2018-08-22T04:20:26.335Z,983.9
2018-08-22T04:21:27.596Z,983.8
2018-08-22T04:22:28.925Z,983.8
2018-08-22T04:23:30.163Z,983.7
2018-08-22T04:24:31.457Z,983.8
2018-08-22T04:25:35.133Z,983.8
2018-08-22T04:26:37.000Z,983.8
2018-08-22T04:27:38.896Z,983.6
2018-08-22T04:28:40.126Z,983.8
2018-08-22T04:29:41.346Z,983.8
2018-08-22T04:30:42.850Z,983.8
2018-08-22T04:31:44.432Z,983.8
2018-08-22T04:32:45.670Z,983.8
2018-08-22T04:33:46.905Z,983.8
2018-08-22T04:34:48.111Z,983.8
2018-08-22T04:35:49.358Z,983.8
2018-08-22T04:36:50.584Z,983.8
2018-08-22T04:37:52.072Z,983.8
2018-08-22T04:38:53.255Z,983.7
2018-08-22T04:39:54.509Z,983.8
2018-08-22T04:40:55.873Z,983.8
2018-08-22T04:41:57.532Z,983.8
2018-08-22T04:42:58.742Z,983.8
2018-08-22T04:43:59.936Z,983.8
2018-08-22T04:45:01.188Z,983.8
2018-08-22T04:46:02.457Z,983.8
2018-08-22T04:47:04.623Z,983.6
2018-08-22T04:48:05.894Z,983.8
2018-08-22T04:49:09.843Z,983.8
2018-08-22T04:50:11.083Z,983.8
2018-08-22T04:51:12.357Z,983.8
2018-08-22T04:52:18.688Z,983.8
2018-08-22T04:53:19.958Z,983.8
2018-08-22T04:54:21.172Z,983.8
2018-08-22T04:55:25.331Z,983.8
2018-08-22T04:56:26.649Z,983.8
2018-08-22T04:57:27.965Z,983.8
2018-08-22T04:58:29.222Z,983.8
2018-08-22T04:59:30.433Z,983.8
2018-08-22T05:00:32.887Z,983.8
2018-08-22T05:01:34.474Z,983.8
2018-08-22T05:02:35.751Z,983.8
2018-08-22T05:03:36.958Z,983.8
2018-08-22T05:04:38.188Z,983.8
2018-08-22T05:05:39.398Z,983.8
2018-08-22T05:06:40.697Z,983.8
2018-08-22T05:07:46.055Z,983.8
2018-08-22T05:08:49.024Z,983.8
2018-08-22T05:09:50.265Z,983.8
2018-08-22T05:10:51.516Z,983.8
2018-08-22T05:11:53.113Z,983.8
2018-08-22T05:12:54.361Z,983.8
2018-08-22T05:13:55.605Z,983.8
2018-08-22T05:14:56.974Z,983.8
2018-08-22T05:15:58.262Z,983.8
2018-08-22T05:16:59.681Z,983.7
2018-08-22T05:18:00.914Z,983.9
2018-08-22T05:19:02.284Z,983.9
2018-08-22T05:20:03.638Z,983.8
2018-08-22T05:21:04.934Z,983.6
2018-08-22T05:22:06.342Z,983.8
2018-08-22T05:23:07.594Z,983.8
2018-08-22T05:24:08.893Z,983.9
2018-08-22T05:25:10.603Z,983.8
2018-08-22T05:26:11.875Z,983.8
2018-08-22T05:27:13.183Z,983.8
2018-08-22T05:28:16.477Z,983.8
2018-08-22T05:29:17.723Z,983.7
2018-08-22T05:30:20.272Z,983.7
2018-08-22T05:31:21.603Z,983.7
2018-08-22T05:32:23.552Z,983.7
2018-08-22T05:33:24.804Z,983.7
2018-08-22T05:34:28.065Z,983.7
2018-08-22T05:35:29.552Z,983.7
2018-08-22T05:36:30.838Z,983.7
2018-08-22T05:37:32.203Z,983.7
2018-08-22T05:38:33.456Z,983.8
2018-08-22T05:39:34.761Z,983.8
2018-08-22T05:40:36.001Z,983.8
2018-08-22T05:41:40.228Z,983.4
2018-08-22T05:42:41.493Z,983.9
2018-08-22T05:43:42.946Z,983.9
2018-08-22T05:44:44.261Z,984
2018-08-22T05:45:45.998Z,983.8
2018-08-22T05:46:47.432Z,984
2018-08-22T05:47:48.975Z,984.1
2018-08-22T05:48:50.255Z,984.1
2018-08-22T05:49:51.483Z,984
2018-08-22T05:50:52.736Z,984.2
2018-08-22T05:51:57.652Z,984.1
2018-08-22T05:52:58.962Z,983.9
2018-08-22T05:54:00.243Z,984.2
2018-08-22T05:55:01.599Z,984.3
2018-08-22T05:56:02.914Z,984.1
2018-08-22T05:57:04.333Z,984.2
2018-08-22T05:58:05.611Z,984.3
2018-08-22T05:59:06.920Z,984
2018-08-22T06:00:08.160Z,983.8
2018-08-22T06:01:09.413Z,983.8
2018-08-22T06:02:12.017Z,983.7
2018-08-22T06:03:13.561Z,983.5
2018-08-22T06:04:14.768Z,983.8
2018-08-22T06:05:16.093Z,983.6
2018-08-22T06:06:17.373Z,983.9
2018-08-22T06:07:18.538Z,984.1
2018-08-22T06:08:19.954Z,984.5
2018-08-22T06:09:21.214Z,984.5
2018-08-22T06:10:22.450Z,984.3
2018-08-22T06:11:23.688Z,984.5
2018-08-22T06:12:27.372Z,984.3
2018-08-22T06:13:29.665Z,984.5
2018-08-22T06:14:41.145Z,984.5
2018-08-22T06:15:42.472Z,984.2
2018-08-22T06:16:48.412Z,984.1
2018-08-22T06:17:49.694Z,983.6
2018-08-22T06:18:51.625Z,983.9
2018-08-22T06:19:52.820Z,984.4
2018-08-22T06:20:56.267Z,984.3
2018-08-22T06:21:57.556Z,984.3
2018-08-22T06:22:58.781Z,984.3
2018-08-22T06:24:00.282Z,984.2
2018-08-22T06:25:02.615Z,984
2018-08-22T06:26:03.842Z,984.4
2018-08-22T06:27:05.160Z,984.2
2018-08-22T06:28:09.216Z,984.4
2018-08-22T06:29:10.594Z,984.7
2018-08-22T06:30:11.809Z,984.3
2018-08-22T06:31:13.227Z,984.1
2018-08-22T06:32:14.720Z,984.2
2018-08-22T06:33:15.951Z,984
2018-08-22T06:34:17.590Z,984.2
2018-08-22T06:35:19.259Z,984.3
2018-08-22T06:36:20.588Z,984.1
2018-08-22T06:37:21.844Z,984.3
2018-08-22T06:38:23.065Z,984
2018-08-22T06:39:24.308Z,984.2
2018-08-22T06:40:25.529Z,984.6
2018-08-22T06:41:29.634Z,984
2018-08-22T06:42:30.939Z,983.8
2018-08-22T06:43:32.691Z,983.9
2018-08-22T06:44:33.962Z,984
2018-08-22T06:45:35.265Z,984.2
2018-08-22T06:46:36.492Z,983.8
2018-08-22T06:47:37.752Z,984
2018-08-22T06:48:38.966Z,983.9
2018-08-22T06:49:40.352Z,983.9
2018-08-22T06:50:41.567Z,983.8
2018-08-22T06:51:42.804Z,983.7
2018-08-22T06:52:44.280Z,983.8
2018-08-22T06:53:45.596Z,984.3
2018-08-22T06:54:46.855Z,984.2
2018-08-22T06:55:48.536Z,984.2
2018-08-22T06:56:49.769Z,985
2018-08-22T06:57:50.993Z,984.3
2018-08-22T06:58:52.208Z,984.5
2018-08-22T06:59:53.500Z,984
2018-08-22T07:00:54.837Z,983.9
2018-08-22T07:02:00.738Z,983.9
2018-08-22T07:03:03.866Z,983.5
2018-08-22T07:04:05.322Z,983.7
2018-08-22T07:05:06.676Z,984.6
2018-08-22T07:06:07.909Z,983.9
2018-08-22T07:07:11.924Z,983.7
2018-08-22T07:08:13.295Z,983.8
2018-08-22T07:09:14.663Z,983.7
2018-08-22T07:10:16.209Z,985.1
2018-08-22T07:11:19.518Z,985.1
2018-08-22T07:12:20.927Z,984.4
2018-08-22T07:13:22.190Z,983.8
2018-08-22T07:14:23.451Z,984.8
2018-08-22T07:15:24.769Z,985.4
2018-08-22T07:16:26.288Z,984.5
2018-08-22T07:17:27.539Z,985.2
2018-08-22T07:18:28.870Z,984.9
2018-08-22T07:19:30.299Z,985.4
2018-08-22T07:20:31.725Z,985.3
2018-08-22T07:21:32.970Z,983.8
2018-08-22T07:22:34.280Z,983.5
2018-08-22T07:23:37.741Z,984.6
2018-08-22T07:24:41.414Z,984
2018-08-22T07:25:45.725Z,984.4
2018-08-22T07:26:47.008Z,984.2
2018-08-22T07:27:48.250Z,983.6
2018-08-22T07:28:54.144Z,983.4
2018-08-22T07:29:55.642Z,983.7
2018-08-22T07:30:56.823Z,983.9
2018-08-22T07:31:58.081Z,984.1
2018-08-22T07:32:59.447Z,983.6
2018-08-22T07:34:02.951Z,983.3
2018-08-22T07:35:04.239Z,983.3
2018-08-22T07:36:05.633Z,983
2018-08-22T07:37:06.988Z,982.9
2018-08-22T07:38:08.297Z,983.3
2018-08-22T07:39:09.628Z,983.2
2018-08-22T07:40:10.913Z,983.3
2018-08-22T07:41:12.337Z,983.3
2018-08-22T07:42:14.143Z,983.4
2018-08-22T07:43:15.657Z,983.4
2018-08-22T07:44:17.703Z,983.3
2018-08-22T07:45:19.305Z,983
2018-08-22T07:46:20.564Z,983.2
2018-08-22T07:47:21.881Z,983
2018-08-22T07:48:23.432Z,983.4
2018-08-22T07:49:24.715Z,983.5
2018-08-22T07:50:26.031Z,983.4
2018-08-22T07:51:37.754Z,983.5
2018-08-22T07:52:49.308Z,983.6
2018-08-22T07:53:50.543Z,983.3
2018-08-22T07:54:51.776Z,983.4
2018-08-22T07:55:56.056Z,984.1
2018-08-22T07:56:57.433Z,983.9
2018-08-22T07:57:58.685Z,983.7
2018-08-22T07:58:59.982Z,983.6
2018-08-22T08:00:01.596Z,984.3
2018-08-22T08:01:04.078Z,983.7
2018-08-22T08:02:05.364Z,983.3
2018-08-22T08:03:06.909Z,983.8
2018-08-22T08:04:08.105Z,983.7
2018-08-22T08:05:09.384Z,983.4
2018-08-22T08:06:10.654Z,983.1
2018-08-22T08:07:12.915Z,983.1
2018-08-22T08:08:14.216Z,983.1
2018-08-22T08:09:15.554Z,982.9
2018-08-22T08:10:17.701Z,983.9
2018-08-22T08:11:18.962Z,983.8
2018-08-22T08:12:35.219Z,983.3
2018-08-22T08:13:36.547Z,983.6
2018-08-22T08:14:37.748Z,983.8
2018-08-22T08:15:39.266Z,983.6
2018-08-22T08:16:40.597Z,984.2
2018-08-22T08:17:44.425Z,983.9
2018-08-22T08:18:47.907Z,983.5
2018-08-22T08:19:55.118Z,983.9
2018-08-22T08:20:59.141Z,983.6
2018-08-22T08:22:00.548Z,983.6
2018-08-22T08:23:03.062Z,983.6
2018-08-22T08:24:04.552Z,983.5
2018-08-22T08:25:05.972Z,983.2
2018-08-22T08:26:10.119Z,983.1
2018-08-22T08:27:11.320Z,983.1
2018-08-22T08:28:12.597Z,983.3
2018-08-22T08:29:13.947Z,983
2018-08-22T08:30:15.210Z,983.3
2018-08-22T08:31:16.588Z,983.6
2018-08-22T08:32:17.828Z,983.6
2018-08-22T08:33:19.302Z,983.8
2018-08-22T08:34:20.552Z,983.4
2018-08-22T08:35:27.268Z,983.3
2018-08-22T08:36:30.193Z,983.2
2018-08-22T08:37:31.631Z,983.1
2018-08-22T08:38:33.700Z,983.2
2018-08-22T08:39:36.054Z,983.2
2018-08-22T08:40:37.563Z,983.7
2018-08-22T08:41:40.637Z,983.4
2018-08-22T08:42:42.755Z,983
2018-08-22T08:43:47.363Z,983.4
2018-08-22T08:44:49.353Z,983.3
2018-08-22T08:45:50.770Z,982.9
2018-08-22T08:47:04.187Z,983.5
2018-08-22T08:48:05.440Z,983.1
2018-08-22T08:49:09.119Z,983.6
2018-08-22T08:50:12.221Z,983.4
2018-08-22T08:51:14.071Z,983.5
2018-08-22T08:52:18.377Z,983.9
2018-08-22T08:53:19.675Z,983.9
2018-08-22T08:54:20.918Z,984.1
2018-08-22T08:55:22.489Z,983.1
2018-08-22T08:56:26.394Z,983.5
2018-08-22T08:57:28.217Z,983.9
2018-08-22T08:58:29.359Z,983.5
2018-08-22T08:59:32.892Z,983.7
2018-08-22T09:00:34.115Z,983
2018-08-22T09:01:38.282Z,983
2018-08-22T09:02:42.467Z,982.8
2018-08-22T09:03:47.114Z,983
2018-08-22T09:04:48.366Z,983
2018-08-22T09:05:49.666Z,983.1
2018-08-22T09:06:51.052Z,983
2018-08-22T09:07:52.344Z,983.5
2018-08-22T09:08:53.592Z,983.2
2018-08-22T09:09:55.138Z,983
2018-08-22T09:10:59.112Z,982.6
2018-08-22T09:12:00.718Z,982.9
2018-08-22T09:13:02.106Z,982.9
2018-08-22T09:14:03.479Z,983
2018-08-22T09:15:07.308Z,983.3
2018-08-22T09:16:08.594Z,983.3
2018-08-22T09:17:12.088Z,983
2018-08-22T09:18:13.476Z,983.6
2018-08-22T09:19:17.320Z,983.5
2018-08-22T09:20:18.612Z,983.5
2018-08-22T09:21:20.171Z,983
2018-08-22T09:22:24.321Z,983.1
2018-08-22T09:23:26.550Z,983
2018-08-22T09:24:27.873Z,982.9
2018-08-22T09:25:29.475Z,983.2
2018-08-22T09:26:38.751Z,983
2018-08-22T09:27:42.975Z,982.6
2018-08-22T09:28:44.364Z,982.6
2018-08-22T09:29:45.818Z,982.4
2018-08-22T09:30:47.136Z,982.4
2018-08-22T09:31:49.095Z,982.4
2018-08-22T09:33:05.019Z,982.5
2018-08-22T09:34:09.460Z,982.7
2018-08-22T09:35:10.721Z,982.7
2018-08-22T09:36:12.087Z,982.9
2018-08-22T09:37:13.544Z,982.5
2018-08-22T09:38:14.790Z,982.3
2018-08-22T09:39:19.585Z,982.4
2018-08-22T09:40:22.031Z,982.4
2018-08-22T09:41:23.399Z,982.6
2018-08-22T09:42:24.741Z,982.5
2018-08-22T09:43:26.036Z,982.2
2018-08-22T09:44:27.333Z,982.2
2018-08-22T09:45:32.729Z,982.3
2018-08-22T09:46:36.967Z,982.4
2018-08-22T09:47:38.243Z,982.4
2018-08-22T09:48:41.667Z,982.4
2018-08-22T09:49:44.907Z,982.6
2018-08-22T09:50:48.574Z,982.4
2018-08-22T09:51:52.091Z,982.5
2018-08-22T09:52:53.661Z,982.4
2018-08-22T09:53:59.677Z,982.4
2018-08-22T09:55:03.483Z,982.3
2018-08-22T09:56:04.826Z,982.4
2018-08-22T09:57:15.208Z,982.2
2018-08-22T09:58:16.711Z,982.4
2018-08-22T09:59:18.194Z,982.4
2018-08-22T10:00:19.508Z,982.2
2018-08-22T10:01:20.789Z,982.2
2018-08-22T10:02:22.368Z,982
2018-08-22T10:03:24.743Z,982
2018-08-22T10:04:26.547Z,982.2
2018-08-22T10:05:27.825Z,982.2
2018-08-22T10:06:29.290Z,982.2
2018-08-22T10:07:30.552Z,982.4
2018-08-22T10:08:31.763Z,982.3
2018-08-22T10:09:38.630Z,982.4
2018-08-22T10:10:44.676Z,982.1
2018-08-22T10:11:48.000Z,982.1
2018-08-22T10:12:49.640Z,982.4
2018-08-22T10:13:51.073Z,982.3
2018-08-22T10:14:52.373Z,982.4
2018-08-22T10:15:53.630Z,982.5
2018-08-22T10:16:57.100Z,982.4
2018-08-22T10:18:01.440Z,982.2
2018-08-22T10:19:02.974Z,982.2
2018-08-22T10:20:06.642Z,981.8
2018-08-22T10:21:08.037Z,981.8
2018-08-22T10:22:09.443Z,982.1
2018-08-22T10:23:10.983Z,982
2018-08-22T10:24:12.281Z,982.3
2018-08-22T10:25:13.648Z,981.9
2018-08-22T10:26:14.885Z,981.9
2018-08-22T10:27:22.224Z,981.8
2018-08-22T10:28:23.624Z,981.9
2018-08-22T10:29:24.913Z,982
2018-08-22T10:30:26.598Z,981.6
2018-08-22T10:31:28.014Z,981.7
2018-08-22T10:32:32.301Z,981.9
2018-08-22T10:33:33.598Z,982.2
2018-08-22T10:34:34.840Z,982.1
2018-08-22T10:35:36.282Z,981.8
2018-08-22T10:36:37.593Z,981.9
2018-08-22T10:37:42.096Z,981.9
2018-08-22T10:38:48.494Z,981.6
2018-08-22T10:39:50.908Z,981.4
2018-08-22T10:40:52.419Z,981.3
2018-08-22T10:41:53.723Z,981.7
2018-08-22T10:42:58.115Z,981.7
2018-08-22T10:44:08.124Z,981.6
2018-08-22T10:45:09.697Z,981.6
2018-08-22T10:46:11.533Z,981.8
2018-08-22T10:47:14.828Z,981.6
2018-08-22T10:48:16.280Z,981.7
2018-08-22T10:49:17.578Z,981.5
2018-08-22T10:50:18.900Z,981.8
2018-08-22T10:51:22.649Z,981.9
2018-08-22T10:52:24.043Z,981.8
2018-08-22T10:53:25.485Z,981.5
2018-08-22T10:54:26.940Z,981.8
2018-08-22T10:55:28.372Z,981.9
2018-08-22T10:56:32.096Z,981.8
2018-08-22T10:57:35.976Z,981.8
2018-08-22T10:58:37.448Z,981.7
2018-08-22T10:59:38.846Z,981.2
2018-08-22T11:00:41.608Z,981.3
2018-08-22T11:01:50.162Z,981.6
2018-08-22T11:02:51.500Z,981.7
2018-08-22T11:03:52.987Z,981.8
2018-08-22T11:04:57.856Z,981.4
2018-08-22T11:05:59.180Z,981.6
2018-08-22T11:07:05.760Z,981.5
2018-08-22T11:08:07.353Z,981.3
2018-08-22T11:09:12.105Z,981.5
2018-08-22T11:10:17.934Z,981.2
2018-08-22T11:11:22.035Z,981.5
2018-08-22T11:12:23.772Z,981.6
2018-08-22T11:13:31.465Z,981.7
2018-08-22T11:14:51.254Z,981.7
2018-08-22T11:15:55.205Z,981.7
2018-08-22T11:16:57.045Z,981.5
2018-08-22T11:18:02.190Z,981.5
2018-08-22T11:19:03.548Z,981.6
2018-08-22T11:20:04.812Z,981.6
2018-08-22T11:21:08.795Z,981.6
2018-08-22T11:22:11.406Z,981.6
2018-08-22T11:23:13.949Z,981.4
2018-08-22T11:24:15.397Z,981.4
2018-08-22T11:25:22.108Z,981.6
2018-08-22T11:26:23.413Z,981.5
2018-08-22T11:27:24.652Z,981.5
2018-08-22T11:28:28.132Z,981.4
2018-08-22T11:29:29.411Z,981.2
2018-08-22T11:30:33.094Z,981.4
2018-08-22T11:31:37.328Z,981.4
2018-08-22T11:32:39.875Z,981.6
2018-08-22T11:33:46.278Z,981.7
2018-08-22T11:35:02.585Z,981.7
2018-08-22T11:36:05.620Z,981.7
2018-08-22T11:37:10.004Z,981.6
2018-08-22T11:38:11.292Z,981.3
2018-08-22T11:39:15.149Z,981.3
2018-08-22T11:40:20.264Z,981.3
2018-08-22T11:41:24.351Z,981.2
2018-08-22T11:42:25.836Z,981.4
2018-08-22T11:43:31.828Z,981.2
2018-08-22T11:44:33.634Z,981
2018-08-22T11:45:34.886Z,981.1
2018-08-22T11:46:36.217Z,981.2
2018-08-22T11:47:37.683Z,981.3
2018-08-22T11:48:40.244Z,981.5
2018-08-22T11:49:41.525Z,981.4
2018-08-22T11:50:45.135Z,981.3
2018-08-22T11:51:48.030Z,981.2
2018-08-22T11:52:49.525Z,981.3
2018-08-22T11:53:50.805Z,981.4
2018-08-22T11:54:52.101Z,981.5
2018-08-22T11:55:53.430Z,981.3
2018-08-22T11:56:55.347Z,981.4
2018-08-22T11:58:02.475Z,981.5
2018-08-22T11:59:04.525Z,981.3
2018-08-22T12:00:06.547Z,981.1
2018-08-22T12:01:07.939Z,981.3
2018-08-22T12:02:09.462Z,981.2
2018-08-22T12:03:10.744Z,981.3
2018-08-22T12:04:12.472Z,981.3
2018-08-22T12:05:16.154Z,981.3
2018-08-22T12:06:17.402Z,981.4
2018-08-22T12:07:20.489Z,981.5
2018-08-22T12:08:24.760Z,981.3
2018-08-22T12:09:26.048Z,981.3
2018-08-22T12:10:30.244Z,981.3
2018-08-22T12:11:31.505Z,981
2018-08-22T12:12:35.033Z,981.2
2018-08-22T12:13:39.318Z,981.2
2018-08-22T12:14:42.096Z,981.5
2018-08-22T12:15:44.316Z,981.5
2018-08-22T12:16:50.230Z,981.5
2018-08-22T12:17:51.465Z,981.5
2018-08-22T12:18:52.786Z,981.3
2018-08-22T12:19:56.912Z,980.9
2018-08-22T12:21:02.060Z,980.8
2018-08-22T12:22:09.177Z,981.1
2018-08-22T12:23:10.778Z,981.1
2018-08-22T12:24:11.988Z,981
2018-08-22T12:25:14.923Z,981.2
2018-08-22T12:26:18.963Z,981.3
2018-08-22T12:27:23.312Z,981.2
2018-08-22T12:28:24.618Z,981.1
2018-08-22T12:29:25.935Z,981
2018-08-22T12:30:27.277Z,981
2018-08-22T12:31:28.603Z,981
2018-08-22T12:32:32.421Z,980.9
2018-08-22T12:33:33.664Z,980.9
2018-08-22T12:34:35.099Z,980.8
2018-08-22T12:35:36.348Z,980.8
2018-08-22T12:36:37.698Z,981.1
2018-08-22T12:37:42.144Z,981
2018-08-22T12:38:43.741Z,980.9
2018-08-22T12:39:48.004Z,981
2018-08-22T12:40:51.647Z,981.2
2018-08-22T12:41:58.095Z,981.2
2018-08-22T12:42:59.680Z,981.1
2018-08-22T12:44:03.925Z,980.8
2018-08-22T12:45:05.298Z,980.9
2018-08-22T12:46:06.708Z,981.1
2018-08-22T12:47:14.278Z,981.1
2018-08-22T12:48:15.790Z,981.1
2018-08-22T12:49:17.197Z,981.2
2018-08-22T12:50:18.525Z,981
2018-08-22T12:51:22.311Z,980.9
2018-08-22T12:52:23.577Z,980.6
2018-08-22T12:53:24.849Z,980.6
2018-08-22T12:54:26.278Z,980.6
2018-08-22T12:55:27.687Z,980.8
2018-08-22T12:56:28.974Z,980.5
2018-08-22T12:57:33.218Z,980.6
2018-08-22T12:58:34.522Z,980.7
2018-08-22T12:59:38.861Z,980.9
2018-08-22T13:00:43.610Z,981
2018-08-22T13:01:46.311Z,980.8
2018-08-22T13:02:48.154Z,980.6
2018-08-22T13:03:49.614Z,980.6
2018-08-22T13:04:50.946Z,980.7
2018-08-22T13:05:52.275Z,980.7
2018-08-22T13:06:53.610Z,980.9
2018-08-22T13:07:54.852Z,980.9
2018-08-22T13:08:59.145Z,980.9
2018-08-22T13:10:03.046Z,980.9
2018-08-22T13:11:04.368Z,980.8
2018-08-22T13:12:06.601Z,980.9
2018-08-22T13:13:15.364Z,980.8
2018-08-22T13:14:18.074Z,980.8
2018-08-22T13:15:22.285Z,980.8
2018-08-22T13:16:23.707Z,980.8
2018-08-22T13:17:28.185Z,980.7
2018-08-22T13:18:29.503Z,980.5
2018-08-22T13:19:30.902Z,980.5
2018-08-22T13:20:32.259Z,980.5
2018-08-22T13:21:33.576Z,980.7
2018-08-22T13:22:34.876Z,980.7
2018-08-22T13:23:39.029Z,980.8
2018-08-22T13:24:40.574Z,980.8
2018-08-22T13:25:41.783Z,980.6